Nabb, IN (47147)

1:25 PM EDT on September 28, 2016 (GMT -0400)
CLT Observatory | | Change Station

Elev 639 ft 38.48 °N, 85.59 °W | Updated 3 seconds ago

Light Rain
Light Rain
58.1 °F
Feels Like 58.1 °F
N
3.0
Wind Variable Wind from SSW
Gusts 8.0 mph

Today
High -- | Low -- °F
--% Chance of Precip.
Yesterday
High -- | Low -- °F
Precip. -- in
Pressure 29.85 in
Visibility 8.0 miles
Clouds Scattered Clouds 3800 ft
Mostly Cloudy 5500 ft
Overcast 9000 ft
Dew Point 56 °F
Humidity 92%
Rainfall 0.33 in
Snow Depth Not available.
7:35 AM 7:28 PM
Waning Crescent, 5% visible
METAR KLOU 281653Z 32005KT 8SM -RA SCT038 BKN055 OVC090 17/14 A2986 RMK AO2 LTG DSNT W SLP108 P0002 T01720139
Pressure 29.85 in
Visibility 8.0 miles
Clouds Scattered Clouds 3800 ft
Mostly Cloudy 5500 ft
Overcast 9000 ft
Dew Point 56 °F
Humidity 92%
Rainfall 0.33 in
Snow Depth Not available.
7:35 AM 7:28 PM
Waning Crescent, 5% visible
METAR KLOU 281653Z 32005KT 8SM -RA SCT038 BKN055 OVC090 17/14 A2986 RMK AO2 LTG DSNT W SLP108 P0002 T01720139

10-Day Weather Forecast

Almanac

Astronomy

Sep. 28, 2016 Rise Set
Actual Time
Civil Twilight
Nautical Twilight
Astronomical Twilight
Moon
Length of Visible Light
Length of Day
Tomorrow will be .
, % of the Moon is Illuminated

Today's Extremes

State Highs State Lows

Community

WunderPhotos

Upload Photos

1,942,291 photos uploaded!

WunderBlog® & News

Nearby

Air Quality

  Air Quality AQ Index Pollutant
Not available.

Snow Depth

Station Depth Elevation

Earthquake Activity

City Distance Mag. Time & Date
Minimum magnitude displayed is 2.5.

Coastal Water Temperatures

Place Temperature

Stations

Nearby Weather Stations

Station Location Temp. Windchill Dew Point Humidity Wind Precip. Elev Updated Type
                   

Watches & Warnings

There are currently no watches in effect.